Time;durP1;ratioP1;P1;durP2;ratioP2;P2;SDS_P1;SDS_P2;PMS_P1;PMS_P2;Temp;Humidity;BMP_temperature;BMP_pressure;BME280_temperature;BME280_humidity;BME280_pressure;Samples;Min_cycle;Max_cycle;Signal;HPM_P1;HPM_P2
2023/10/07 00:00:33;;;;;;;2.97;1.80;;;19.00;70.40;;;;;;5037065;28;20033;-75
2023/10/07 00:03:00;;;;;;;2.90;1.80;;;19.00;70.40;;;;;;5040401;28;20045;-75
2023/10/07 00:05:35;;;;;;;2.88;1.85;;;18.90;70.40;;;;;;5037826;28;20470;-75
2023/10/07 00:08:35;;;;;;;3.00;2.10;;;18.90;70.40;;;;;;5036036;28;20605;-75
2023/10/07 00:10:58;;;;;;;3.53;1.88;;;19.00;70.50;;;;;;5033634;28;20068;-75
2023/10/07 00:13:26;;;;;;;2.70;1.92;;;18.90;70.40;;;;;;5037623;28;20056;-75
2023/10/07 00:15:53;;;;;;;2.85;2.05;;;18.90;70.50;;;;;;5031920;28;20025;-76
2023/10/07 00:18:19;;;;;;;3.53;2.30;;;18.90;70.50;;;;;;5041121;28;20021;-75
2023/10/07 00:20:55;;;;;;;3.53;2.13;;;18.80;70.50;;;;;;5038145;28;20082;-75
2023/10/07 00:23:22;;;;;;;2.60;1.92;;;18.80;70.60;;;;;;5030058;28;20435;-75
2023/10/07 00:25:50;;;;;;;3.53;2.13;;;18.80;70.60;;;;;;5035626;28;20128;-75
2023/10/07 00:28:24;;;;;;;3.67;2.17;;;18.80;70.70;;;;;;5033319;28;20026;-75
2023/10/07 00:30:50;;;;;;;3.50;1.98;;;18.70;70.70;;;;;;5038683;28;20068;-76
2023/10/07 00:33:21;;;;;;;4.38;2.28;;;18.70;70.70;;;;;;5015041;28;20033;-75
2023/10/07 00:35:54;;;;;;;3.08;2.10;;;18.70;70.70;;;;;;5035160;28;20030;-75
2023/10/07 00:38:24;;;;;;;2.53;1.90;;;18.70;70.70;;;;;;5035991;28;20478;-75
2023/10/07 00:40:54;;;;;;;2.80;1.90;;;18.70;70.70;;;;;;5011700;28;20030;-75
2023/10/07 00:43:30;;;;;;;2.95;1.90;;;18.70;70.80;;;;;;5032994;28;20033;-75
2023/10/07 00:46:11;;;;;;;3.10;2.20;;;18.70;70.90;;;;;;5033425;28;20037;-76
2023/10/07 00:49:20;;;;;;;3.08;2.10;;;18.70;70.90;;;;;;5032124;28;20492;-75
2023/10/07 00:51:34;;;;;;;3.08;2.03;;;18.70;70.90;;;;;;5033117;28;20478;-75
2023/10/07 00:54:07;;;;;;;4.50;2.67;;;18.70;70.90;;;;;;5036200;28;20116;-75
2023/10/07 00:56:36;;;;;;;4.85;2.15;;;18.60;70.90;;;;;;5039851;28;20056;-75
2023/10/07 00:59:07;;;;;;;2.80;2.08;;;18.60;70.90;;;;;;5014370;28;20037;-75
2023/10/07 01:01:36;;;;;;;3.22;2.13;;;18.60;71.60;;;;;;5033310;28;20039;-75
2023/10/07 01:04:06;;;;;;;4.25;2.33;;;18.60;71.00;;;;;;5016333;28;20120;-76
2023/10/07 01:06:32;;;;;;;3.17;2.05;;;18.60;71.00;;;;;;5030342;28;20030;-75
2023/10/07 01:09:07;;;;;;;3.17;1.92;;;18.60;71.10;;;;;;5034050;28;20049;-75
2023/10/07 01:11:37;;;;;;;3.33;2.15;;;18.60;71.00;;;;;;5019808;28;20026;-75
2023/10/07 01:14:05;;;;;;;3.53;2.28;;;18.60;71.10;;;;;;5037047;28;20612;-76
2023/10/07 01:21:54;;;;;;;3.72;2.45;;;18.50;71.10;;;;;;5035132;28;20228;-75
2023/10/07 01:30:07;;;;;;;3.05;2.00;;;18.50;71.20;;;;;;5037287;28;20099;-74
2023/10/07 01:32:34;;;;;;;3.63;2.05;;;18.50;71.20;;;;;;5034559;28;20054;-75
2023/10/07 01:35:11;;;;;;;3.65;2.10;;;18.50;71.20;;;;;;5021378;28;20025;-76
2023/10/07 01:37:50;;;;;;;3.25;2.30;;;18.50;71.20;;;;;;5037682;28;20040;-76
2023/10/07 01:40:17;;;;;;;3.65;2.60;;;18.50;71.30;;;;;;5032896;28;20053;-75
2023/10/07 01:42:44;;;;;;;4.18;2.40;;;18.40;71.30;;;;;;5039010;28;20083;-75
2023/10/07 01:45:22;;;;;;;4.30;2.25;;;18.40;71.30;;;;;;5035282;28;20112;-75
2023/10/07 01:47:52;;;;;;;2.75;2.13;;;18.40;71.30;;;;;;5035332;28;20474;-75
2023/10/07 01:50:18;;;;;;;4.70;2.33;;;18.40;71.30;;;;;;5032977;28;20033;-75
2023/10/07 01:52:53;;;;;;;3.88;2.38;;;18.40;71.30;;;;;;5025483;28;20114;-76
2023/10/07 01:55:19;;;;;;;3.33;1.95;;;18.40;71.40;;;;;;5012898;28;20049;-75
2023/10/07 01:57:48;;;;;;;3.83;2.30;;;18.40;71.40;;;;;;4999837;28;20123;-75
2023/10/07 02:00:34;;;;;;;2.65;1.92;;;18.30;71.40;;;;;;5029473;28;20034;-76
2023/10/07 02:03:02;;;;;;;3.55;2.22;;;18.30;71.40;;;;;;5024492;28;20025;-76
2023/10/07 02:05:39;;;;;;;3.38;2.45;;;18.40;71.40;;;;;;5014815;28;20837;-75
2023/10/07 02:08:11;;;;;;;4.00;2.50;;;18.40;71.40;;;;;;5015155;28;20501;-76
2023/10/07 02:10:41;;;;;;;4.72;2.63;;;18.30;71.40;;;;;;5036626;28;20445;-75
2023/10/07 02:13:21;;;;;;;3.78;2.33;;;18.40;72.10;;;;;;5030157;28;20026;-75
2023/10/07 02:15:47;;;;;;;3.42;2.30;;;18.40;71.50;;;;;;5018680;28;20080;-76
2023/10/07 02:18:16;;;;;;;3.55;2.25;;;18.40;71.50;;;;;;5023082;28;20037;-75
2023/10/07 02:20:49;;;;;;;4.07;2.65;;;18.30;71.50;;;;;;5013402;28;20044;-75
2023/10/07 02:23:37;;;;;;;4.30;2.63;;;18.30;71.50;;;;;;5015457;28;20038;-76
2023/10/07 02:26:14;;;;;;;2.75;2.05;;;18.30;71.50;;;;;;5045380;28;20029;-75
2023/10/07 02:28:39;;;;;;;3.85;2.40;;;18.40;71.50;;;;;;5039697;28;20021;-75
2023/10/07 02:31:15;;;;;;;3.42;2.42;;;18.30;71.40;;;;;;5031129;28;20441;-75
2023/10/07 02:33:42;;;;;;;3.67;2.40;;;18.30;71.40;;;;;;5030062;28;20033;-75
2023/10/07 02:36:13;;;;;;;4.30;2.38;;;18.30;72.10;;;;;;5032898;28;20021;-75
2023/10/07 02:38:43;;;;;;;6.00;2.78;;;18.30;71.40;;;;;;5029616;28;20049;-75
2023/10/07 02:41:17;;;;;;;5.60;2.60;;;18.30;71.40;;;;;;5034068;28;20036;-74
2023/10/07 02:43:48;;;;;;;3.65;2.42;;;18.40;71.50;;;;;;5026295;28;20061;-75
2023/10/07 02:49:14;;;;;;;3.78;2.78;;;18.30;71.50;;;;;;5026081;28;20045;-75
2023/10/07 02:51:45;;;;;;;3.83;2.67;;;18.30;71.50;;;;;;4996346;28;20072;-75
2023/10/07 02:54:19;;;;;;;4.18;2.65;;;18.30;71.50;;;;;;5015280;28;20029;-75
2023/10/07 02:59:35;;;;;;;3.90;2.50;;;18.30;71.60;;;;;;5054042;28;20060;-76
2023/10/07 03:02:12;;;;;;;4.70;2.90;;;18.30;71.60;;;;;;5038679;28;20033;-75
2023/10/07 03:04:43;;;;;;;3.65;2.50;;;18.30;71.60;;;;;;5016916;28;20037;-76
2023/10/07 03:07:16;;;;;;;4.85;3.05;;;18.30;71.70;;;;;;5044292;28;20105;-75
2023/10/07 03:09:52;;;;;;;4.32;2.53;;;18.30;71.70;;;;;;5051755;28;20021;-75
2023/10/07 03:12:27;;;;;;;4.95;2.90;;;18.30;71.70;;;;;;5032358;28;20482;-75
2023/10/07 03:14:57;;;;;;;4.13;2.65;;;18.30;71.70;;;;;;5032802;28;20493;-76
2023/10/07 03:17:32;;;;;;;4.70;2.83;;;18.30;71.70;;;;;;5003089;28;20358;-75
2023/10/07 03:20:23;;;;;;;3.63;2.58;;;18.30;71.70;;;;;;5010587;28;20397;-75
2023/10/07 03:23:10;;;;;;;4.03;2.83;;;18.30;71.70;;;;;;5017105;28;20049;-75
2023/10/07 03:25:47;;;;;;;3.83;2.50;;;18.30;71.70;;;;;;5030286;28;20034;-75
2023/10/07 03:28:16;;;;;;;3.53;2.42;;;18.30;71.70;;;;;;5033429;28;20037;-75
2023/10/07 03:30:52;;;;;;;5.00;2.97;;;18.30;71.80;;;;;;5040652;28;20033;-74
2023/10/07 03:34:08;;;;;;;4.20;2.90;;;18.20;72.40;;;;;;5034687;28;20045;-75
2023/10/07 03:41:35;;;;;;;4.57;2.88;;;18.30;71.90;;;;;;5025202;28;20110;-75
2023/10/07 03:44:02;;;;;;;6.03;3.35;;;18.20;71.80;;;;;;5016529;28;20520;-75
2023/10/07 03:46:28;;;;;;;4.50;2.80;;;18.20;71.90;;;;;;5018971;28;20036;-75
2023/10/07 03:48:55;;;;;;;4.38;2.78;;;18.20;72.50;;;;;;5047848;28;20402;-75
2023/10/07 03:51:22;;;;;;;5.53;2.92;;;18.20;71.90;;;;;;5042108;28;20059;-75
2023/10/07 03:53:57;;;;;;;4.05;2.53;;;18.20;71.90;;;;;;5019059;28;20390;-76
2023/10/07 03:56:22;;;;;;;5.10;3.53;;;18.20;71.90;;;;;;5041796;28;20061;-75
2023/10/07 03:58:48;;;;;;;4.40;3.00;;;18.20;71.90;;;;;;5033129;28;20068;-75
2023/10/07 04:01:17;;;;;;;4.28;2.95;;;18.20;71.90;;;;;;5039099;28;20398;-75
2023/10/07 04:03:48;;;;;;;4.78;2.97;;;18.20;71.90;;;;;;5017683;28;20028;-75
2023/10/07 04:06:19;;;;;;;5.80;3.53;;;18.20;72.00;;;;;;5042933;28;20064;-77
2023/10/07 04:08:52;;;;;;;5.13;3.15;;;18.30;72.10;;;;;;5034986;28;20102;-77
2023/10/07 04:11:19;;;;;;;5.10;3.38;;;18.20;72.00;;;;;;5026718;28;20072;-77
2023/10/07 04:13:53;;;;;;;4.82;3.25;;;18.20;72.00;;;;;;5034658;28;20044;-77
2023/10/07 04:16:27;;;;;;;5.80;3.30;;;18.20;72.00;;;;;;5024771;28;20021;-77
2023/10/07 04:19:14;;;;;;;5.47;3.25;;;18.20;72.00;;;;;;5026961;28;20172;-75
2023/10/07 04:21:39;;;;;;;6.13;3.00;;;18.20;72.00;;;;;;5034505;28;20090;-77
2023/10/07 04:24:10;;;;;;;4.70;3.15;;;18.20;72.00;;;;;;5016270;28;20033;-77
2023/10/07 04:26:44;;;;;;;5.75;3.08;;;18.20;72.00;;;;;;5021810;28;20029;-76
2023/10/07 04:29:16;;;;;;;6.30;3.30;;;18.20;72.10;;;;;;5034131;28;20033;-77
2023/10/07 04:31:51;;;;;;;4.47;3.00;;;18.20;72.00;;;;;;5040073;28;20475;-78
2023/10/07 04:34:21;;;;;;;5.40;3.63;;;18.20;72.10;;;;;;5036041;28;20029;-77
2023/10/07 04:42:22;;;;;;;4.88;3.03;;;18.20;72.10;;;;;;5035137;28;20064;-77
2023/10/07 04:50:06;;;;;;;5.45;2.97;;;18.20;72.10;;;;;;5021506;28;20034;-76
2023/10/07 04:52:32;;;;;;;4.38;3.00;;;18.20;72.20;;;;;;5034770;28;20046;-76
2023/10/07 04:54:59;;;;;;;4.55;3.13;;;18.20;72.20;;;;;;5031810;28;20124;-76
2023/10/07 05:00:34;;;;;;;4.75;2.80;;;18.20;72.10;;;;;;4988857;28;20101;-77
2023/10/07 05:03:14;;;;;;;4.50;3.00;;;18.20;72.10;;;;;;5031282;28;20045;-76
2023/10/07 05:05:43;;;;;;;4.13;2.67;;;18.20;72.10;;;;;;5038723;28;20020;-76
2023/10/07 05:08:22;;;;;;;4.00;2.72;;;18.20;72.10;;;;;;5016062;28;20455;-76
2023/10/07 05:10:54;;;;;;;4.82;3.08;;;18.20;72.20;;;;;;5039120;28;20035;-76
2023/10/07 05:13:20;;;;;;;4.70;3.08;;;18.20;72.20;;;;;;5031784;28;20025;-76
2023/10/07 05:15:46;;;;;;;5.53;3.42;;;18.20;72.20;;;;;;5039301;28;20053;-77
2023/10/07 05:18:15;;;;;;;5.03;3.35;;;18.20;72.30;;;;;;5032956;28;20050;-76
2023/10/07 05:20:46;;;;;;;4.75;3.08;;;18.20;72.30;;;;;;5003251;28;20485;-76
2023/10/07 05:23:17;;;;;;;7.47;3.85;;;18.20;72.30;;;;;;5030660;28;20033;-77
2023/10/07 05:25:49;;;;;;;7.35;3.70;;;18.20;72.20;;;;;;5033193;28;20032;-77
2023/10/07 05:28:25;;;;;;;4.65;3.13;;;18.20;72.20;;;;;;5017666;28;20079;-77
2023/10/07 05:30:51;;;;;;;5.72;3.50;;;18.20;72.30;;;;;;5048660;28;20036;-76
2023/10/07 05:33:25;;;;;;;5.10;3.50;;;18.20;72.20;;;;;;5040536;28;20045;-76
2023/10/07 05:36:11;;;;;;;4.55;3.03;;;18.20;72.30;;;;;;5035523;28;20049;-76
2023/10/07 05:38:38;;;;;;;4.60;3.05;;;18.20;72.30;;;;;;5030682;28;20053;-76
2023/10/07 05:41:06;;;;;;;4.43;3.08;;;18.20;72.30;;;;;;5034669;28;20033;-76
2023/10/07 05:43:32;;;;;;;5.55;3.17;;;18.20;72.30;;;;;;5015443;28;20032;-77
2023/10/07 05:45:59;;;;;;;5.18;3.92;;;18.20;72.40;;;;;;5031657;28;20030;-77
2023/10/07 05:48:25;;;;;;;5.07;3.28;;;18.20;72.40;;;;;;5023338;28;20037;-76
2023/10/07 05:50:54;;;;;;;5.53;3.63;;;18.20;72.40;;;;;;5005459;28;20044;-76
2023/10/07 05:53:21;;;;;;;5.90;3.75;;;18.30;72.40;;;;;;5042343;28;20049;-76
2023/10/07 05:55:47;;;;;;;5.57;3.78;;;18.20;72.40;;;;;;5039513;28;20041;-76
2023/10/07 05:58:14;;;;;;;4.80;3.28;;;18.20;72.40;;;;;;5038655;28;20109;-76
2023/10/07 06:00:40;;;;;;;5.10;3.47;;;18.20;72.40;;;;;;5037598;28;20029;-77
2023/10/07 06:03:07;;;;;;;4.63;3.67;;;18.20;72.40;;;;;;5035076;28;20552;-76
2023/10/07 06:05:38;;;;;;;5.28;3.92;;;18.20;72.50;;;;;;5031444;28;20112;-77
2023/10/07 06:08:05;;;;;;;5.80;3.88;;;18.20;72.50;;;;;;5046552;28;20119;-76
2023/10/07 06:10:33;;;;;;;4.85;3.35;;;18.20;72.50;;;;;;5034986;28;20061;-76
2023/10/07 06:12:59;;;;;;;5.38;3.67;;;18.20;72.50;;;;;;5038999;28;20025;-77
2023/10/07 06:15:25;;;;;;;5.13;3.55;;;18.20;72.50;;;;;;5033758;28;20552;-76
2023/10/07 06:17:51;;;;;;;6.05;3.88;;;18.20;72.50;;;;;;5023185;28;20025;-76
2023/10/07 06:20:26;;;;;;;5.70;4.03;;;18.20;72.60;;;;;;4999461;28;20047;-76
2023/10/07 06:22:56;;;;;;;6.00;4.13;;;18.20;72.50;;;;;;5021439;28;20033;-76
2023/10/07 06:25:31;;;;;;;5.68;4.13;;;18.20;72.50;;;;;;5043769;28;20030;-76
2023/10/07 06:27:59;;;;;;;4.82;3.50;;;18.30;72.50;;;;;;5030787;28;20079;-77
2023/10/07 06:30:26;;;;;;;5.00;3.63;;;18.30;72.50;;;;;;5044919;28;20033;-77
2023/10/07 06:33:02;;;;;;;5.65;3.85;;;18.30;72.50;;;;;;5035089;28;20029;-76
2023/10/07 06:35:27;;;;;;;4.95;3.83;;;18.30;72.50;;;;;;5030817;28;20033;-77
2023/10/07 06:37:57;;;;;;;5.55;3.90;;;18.30;72.50;;;;;;5043750;28;20083;-77
2023/10/07 06:40:28;;;;;;;5.32;3.85;;;18.30;72.60;;;;;;5044468;28;20091;-77
2023/10/07 06:42:58;;;;;;;5.57;3.85;;;18.30;72.60;;;;;;5010574;28;20040;-76
2023/10/07 06:45:36;;;;;;;5.30;3.70;;;18.30;72.60;;;;;;5031597;28;20039;-76
2023/10/07 06:48:09;;;;;;;4.47;3.50;;;18.30;72.60;;;;;;5029975;28;20083;-76
2023/10/07 06:50:35;;;;;;;5.53;3.88;;;18.30;72.60;;;;;;5042774;28;20037;-76
2023/10/07 06:53:02;;;;;;;4.57;3.38;;;18.30;72.60;;;;;;5036284;28;20042;-76
2023/10/07 06:55:33;;;;;;;5.50;3.63;;;18.30;72.60;;;;;;5017003;28;20501;-76
2023/10/07 06:57:59;;;;;;;6.55;3.63;;;18.30;72.60;;;;;;5037734;28;20033;-76
2023/10/07 07:00:27;;;;;;;5.05;3.60;;;18.30;72.60;;;;;;5034104;28;20084;-76
2023/10/07 07:02:59;;;;;;;5.28;3.67;;;18.30;72.60;;;;;;5020677;28;20056;-76
2023/10/07 07:05:26;;;;;;;5.50;4.00;;;18.40;72.60;;;;;;5020760;28;20029;-76
2023/10/07 07:07:52;;;;;;;5.30;3.72;;;18.30;72.60;;;;;;5036349;28;20056;-76
2023/10/07 07:10:27;;;;;;;5.40;3.97;;;18.40;72.60;;;;;;5040864;28;20029;-76
2023/10/07 07:13:04;;;;;;;5.03;3.50;;;18.40;72.60;;;;;;5038826;28;20071;-76
2023/10/07 07:15:36;;;;;;;6.93;3.67;;;18.40;72.70;;;;;;5018571;28;20021;-76
2023/10/07 07:18:14;;;;;;;5.18;3.65;;;18.40;72.60;;;;;;5038790;28;20052;-76
2023/10/07 07:23:40;;;;;;;4.95;3.70;;;18.40;72.60;;;;;;5021831;28;20038;-76
2023/10/07 07:26:10;;;;;;;6.32;3.38;;;18.50;72.60;;;;;;5034340;28;20132;-76
2023/10/07 07:28:42;;;;;;;5.35;3.70;;;18.40;72.70;;;;;;5030854;28;20057;-76
2023/10/07 07:31:18;;;;;;;5.43;3.85;;;18.50;72.70;;;;;;5025706;28;20478;-76
2023/10/07 07:33:48;;;;;;;4.93;3.60;;;18.50;72.70;;;;;;5042313;28;20441;-76
2023/10/07 07:36:39;;;;;;;5.22;3.92;;;18.50;72.70;;;;;;5044550;28;20048;-76
2023/10/07 07:39:17;;;;;;;4.80;3.47;;;18.50;72.70;;;;;;5032328;28;20033;-76
2023/10/07 07:41:55;;;;;;;5.55;3.88;;;18.50;72.60;;;;;;5032429;28;20053;-75
2023/10/07 07:44:32;;;;;;;6.32;3.42;;;18.50;72.60;;;;;;5040469;28;20029;-76
2023/10/07 07:47:05;;;;;;;6.40;3.78;;;18.60;72.70;;;;;;5033065;28;20041;-77
2023/10/07 07:49:36;;;;;;;4.82;3.53;;;18.60;72.70;;;;;;5043522;28;20029;-76
2023/10/07 07:52:02;;;;;;;5.95;3.63;;;18.60;72.60;;;;;;5024751;28;20152;-76
2023/10/07 07:54:29;;;;;;;4.68;3.42;;;18.60;72.60;;;;;;5033523;28;20041;-76
2023/10/07 07:56:55;;;;;;;5.68;3.53;;;18.60;72.60;;;;;;5027572;28;20391;-76
2023/10/07 07:59:22;;;;;;;5.63;3.67;;;18.70;72.70;;;;;;5039032;28;20460;-78
2023/10/07 08:02:01;;;;;;;6.07;3.45;;;18.70;72.70;;;;;;4999119;28;20432;-76
2023/10/07 08:04:42;;;;;;;6.30;3.67;;;18.60;72.60;;;;;;5041809;28;20029;-77
2023/10/07 08:09:45;;;;;;;5.53;4.00;;;18.70;72.70;;;;;;5050518;28;20047;-77
2023/10/07 08:12:18;;;;;;;4.95;3.50;;;18.70;72.60;;;;;;5025394;28;20124;-77
2023/10/07 08:14:50;;;;;;;6.15;3.90;;;18.70;72.60;;;;;;5038508;28;20064;-77
2023/10/07 08:17:19;;;;;;;5.95;3.60;;;18.70;72.70;;;;;;5029024;28;20027;-77
2023/10/07 08:19:52;;;;;;;5.72;3.55;;;18.80;72.70;;;;;;5041445;28;20048;-77
2023/10/07 08:22:20;;;;;;;5.65;3.55;;;18.80;72.70;;;;;;5034895;28;20470;-77
2023/10/07 08:24:49;;;;;;;7.30;4.13;;;18.80;72.70;;;;;;5040692;28;20049;-77
2023/10/07 08:30:07;;;;;;;;;;;18.80;72.70;;;;;;5041842;28;20044;-76
2023/10/07 08:32:38;;;;;;;4.30;3.30;;;18.80;72.50;;;;;;5036089;28;19913;-76
2023/10/07 08:35:26;;;;;;;5.07;3.53;;;18.90;72.50;;;;;;5024094;28;20029;-76
2023/10/07 08:37:51;;;;;;;5.40;3.33;;;18.80;72.60;;;;;;5036670;28;20128;-76
2023/10/07 08:40:29;;;;;;;6.40;3.72;;;18.90;72.60;;;;;;5035298;28;20112;-75
2023/10/07 08:42:58;;;;;;;5.78;3.70;;;18.90;72.60;;;;;;5040155;28;20124;-75
2023/10/07 08:45:25;;;;;;;6.15;3.53;;;18.90;72.60;;;;;;5034775;28;20029;-75
2023/10/07 08:47:52;;;;;;;6.35;3.63;;;18.90;72.50;;;;;;5027769;28;20029;-76
2023/10/07 08:50:24;;;;;;;5.20;3.58;;;19.00;72.60;;;;;;5023892;28;20377;-77
2023/10/07 08:53:07;;;;;;;5.32;3.70;;;19.00;72.60;;;;;;5038872;28;20056;-74
2023/10/07 08:55:33;;;;;;;5.45;3.60;;;19.00;72.50;;;;;;5036030;28;20040;-77
2023/10/07 08:58:02;;;;;;;5.43;3.60;;;19.00;72.50;;;;;;5005330;28;20397;-76
2023/10/07 09:00:38;;;;;;;5.03;3.60;;;19.00;72.40;;;;;;5038620;28;20363;-76
2023/10/07 09:03:14;;;;;;;4.82;3.65;;;19.10;72.40;;;;;;5038850;28;20466;-75
2023/10/07 09:05:48;;;;;;;5.68;3.78;;;19.10;72.30;;;;;;5037133;28;20031;-77
2023/10/07 09:08:15;;;;;;;4.67;3.27;;;19.20;72.30;;;;;;5037022;28;20120;-76
2023/10/07 09:10:47;;;;;;;5.22;3.58;;;19.10;72.20;;;;;;5036457;28;20048;-76
2023/10/07 09:13:19;;;;;;;5.18;3.25;;;19.20;72.30;;;;;;5032963;28;20029;-76
2023/10/07 09:15:47;;;;;;;5.40;3.78;;;19.20;72.20;;;;;;5003444;28;20037;-77
2023/10/07 09:18:17;;;;;;;5.65;3.75;;;19.20;72.20;;;;;;5028495;28;20028;-76
2023/10/07 09:20:45;;;;;;;5.47;3.70;;;19.20;72.10;;;;;;5019572;28;20065;-77
2023/10/07 09:23:20;;;;;;;5.45;3.45;;;19.30;72.10;;;;;;5037306;28;20034;-76
2023/10/07 09:25:50;;;;;;;5.97;3.60;;;19.30;72.10;;;;;;5038030;28;20032;-76
2023/10/07 09:28:19;;;;;;;5.78;4.00;;;19.30;72.10;;;;;;5036556;28;20017;-76
2023/10/07 09:30:48;;;;;;;4.93;3.47;;;19.40;72.10;;;;;;5040232;28;20051;-76
2023/10/07 09:33:18;;;;;;;5.50;3.60;;;19.40;72.10;;;;;;5039744;28;20038;-76
2023/10/07 09:35:49;;;;;;;5.70;3.42;;;19.40;72.10;;;;;;5038441;28;20116;-76
2023/10/07 09:38:28;;;;;;;5.30;3.22;;;19.50;72.00;;;;;;5035447;28;20032;-76
2023/10/07 09:43:33;;;;;;;4.90;3.60;;;19.60;72.10;;;;;;5036388;28;20041;-76
2023/10/07 09:45:58;;;;;;;4.57;3.30;;;19.60;72.10;;;;;;5040554;28;20106;-77
2023/10/07 09:48:31;;;;;;;4.88;3.50;;;19.70;72.10;;;;;;5024812;28;20459;-77
2023/10/07 09:51:02;;;;;;;5.15;3.50;;;19.70;72.10;;;;;;5047959;28;20060;-77
2023/10/07 09:53:52;;;;;;;5.03;3.40;;;19.70;72.00;;;;;;5017356;28;20436;-76
2023/10/07 09:56:39;;;;;;;4.65;3.25;;;19.80;72.10;;;;;;5033075;28;20028;-76
2023/10/07 09:59:35;;;;;;;6.15;3.33;;;19.80;71.90;;;;;;5029367;28;20033;-77
2023/10/07 10:02:43;;;;;;;5.20;3.45;;;19.90;72.00;;;;;;5036127;28;20454;-76
2023/10/07 10:05:44;;;;;;;5.30;3.28;;;19.90;71.90;;;;;;5042127;28;20075;-75
2023/10/07 10:08:36;;;;;;;5.43;3.45;;;20.00;71.90;;;;;;5030005;28;20029;-75
2023/10/07 10:11:19;;;;;;;4.50;3.28;;;20.00;71.80;;;;;;5025548;28;20083;-75
2023/10/07 10:16:19;;;;;;;4.95;3.25;;;20.20;71.90;;;;;;5038533;28;20534;-75
2023/10/07 10:18:51;;;;;;;4.68;3.05;;;20.20;71.90;;;;;;5032857;28;20546;-76
2023/10/07 10:21:22;;;;;;;5.78;3.00;;;20.20;71.90;;;;;;5035346;28;20038;-76
2023/10/07 10:23:51;;;;;;;5.53;3.53;;;20.30;71.90;;;;;;5044064;28;20040;-75
2023/10/07 10:26:21;;;;;;;4.90;3.15;;;20.30;71.90;;;;;;5038195;28;20522;-77
2023/10/07 10:29:15;;;;;;;5.18;3.42;;;20.40;71.90;;;;;;5038086;28;20100;-77
2023/10/07 10:31:50;;;;;;;5.13;3.05;;;20.40;71.90;;;;;;5010789;28;20441;-77
2023/10/07 10:34:16;;;;;;;5.38;3.08;;;20.50;71.90;;;;;;5046379;28;20106;-76
2023/10/07 10:36:49;;;;;;;5.05;3.00;;;20.50;71.90;;;;;;5038030;28;20490;-77
2023/10/07 10:39:25;;;;;;;5.22;3.55;;;20.50;71.90;;;;;;5040813;28;20033;-76
2023/10/07 10:41:54;;;;;;;5.50;3.25;;;20.50;72.00;;;;;;5035475;28;20092;-77
2023/10/07 10:44:20;;;;;;;4.93;3.20;;;20.60;72.00;;;;;;5010313;28;20057;-76
2023/10/07 10:46:51;;;;;;;7.15;3.60;;;20.60;72.00;;;;;;5038052;28;20478;-77
2023/10/07 10:49:20;;;;;;;6.30;3.33;;;20.60;72.00;;;;;;5023174;28;20038;-77
2023/10/07 10:51:54;;;;;;;4.63;3.17;;;20.70;72.10;;;;;;5039008;28;20033;-77
2023/10/07 10:54:23;;;;;;;4.05;2.80;;;20.70;72.10;;;;;;5039011;28;20045;-77
2023/10/07 10:56:50;;;;;;;4.80;3.03;;;20.80;72.20;;;;;;5037269;28;20037;-78
2023/10/07 10:59:18;;;;;;;4.95;3.13;;;20.80;72.20;;;;;;5034259;28;20030;-77
2023/10/07 11:01:49;;;;;;;4.90;3.20;;;20.80;72.30;;;;;;5041694;28;20029;-77
2023/10/07 11:04:19;;;;;;;5.35;3.10;;;20.90;72.30;;;;;;5020976;28;20114;-76
2023/10/07 11:06:50;;;;;;;5.88;3.42;;;20.90;72.30;;;;;;5008686;28;20083;-77
2023/10/07 11:09:18;;;;;;;5.38;3.38;;;20.90;72.20;;;;;;5011450;28;20378;-77
2023/10/07 11:11:48;;;;;;;5.55;2.90;;;20.90;72.20;;;;;;5014498;28;20072;-77
2023/10/07 11:14:20;;;;;;;5.53;3.00;;;21.00;72.30;;;;;;5002832;28;20567;-77
2023/10/07 11:16:47;;;;;;;4.93;2.75;;;21.00;72.30;;;;;;5046516;28;20036;-77
2023/10/07 11:19:14;;;;;;;4.72;3.08;;;21.00;72.20;;;;;;5034002;28;20081;-77
2023/10/07 11:21:49;;;;;;;5.47;3.00;;;21.10;72.30;;;;;;5029388;28;20076;-77
2023/10/07 11:24:30;;;;;;;4.57;2.97;;;21.10;72.20;;;;;;5036044;28;20104;-77
2023/10/07 11:26:59;;;;;;;4.05;2.55;;;21.10;72.20;;;;;;5013608;28;20037;-78
2023/10/07 11:29:30;;;;;;;4.63;2.90;;;21.20;72.10;;;;;;5034721;28;20528;-77
2023/10/07 11:32:00;;;;;;;5.35;2.90;;;21.20;72.10;;;;;;5032621;28;20077;-77
2023/10/07 11:34:36;;;;;;;5.50;2.88;;;21.20;72.10;;;;;;5024990;28;20029;-77
2023/10/07 11:37:13;;;;;;;4.95;3.00;;;21.20;72.10;;;;;;5033105;28;20033;-77
2023/10/07 11:39:46;;;;;;;4.82;2.80;;;21.20;72.10;;;;;;5036061;28;20036;-77
2023/10/07 11:42:22;;;;;;;4.80;2.90;;;21.30;72.10;;;;;;5047024;28;20049;-77
2023/10/07 11:44:54;;;;;;;4.38;2.65;;;21.30;72.10;;;;;;5036071;28;20083;-76
2023/10/07 11:47:21;;;;;;;5.07;3.08;;;21.30;72.10;;;;;;5033476;28;20108;-77
2023/10/07 11:49:47;;;;;;;4.75;2.75;;;21.30;72.10;;;;;;5038531;28;20084;-78
2023/10/07 11:52:17;;;;;;;4.47;2.60;;;21.40;72.10;;;;;;5037730;28;20071;-78
2023/10/07 11:54:43;;;;;;;4.30;2.65;;;21.40;72.00;;;;;;5038946;28;20393;-77
2023/10/07 11:57:10;;;;;;;3.70;2.50;;;21.40;71.90;;;;;;5035834;28;20026;-76
2023/10/07 11:59:41;;;;;;;3.92;2.53;;;21.50;71.90;;;;;;5042317;28;20033;-76
2023/10/07 12:02:14;;;;;;;4.95;2.90;;;21.50;71.90;;;;;;5041328;28;20033;-77
2023/10/07 12:04:48;;;;;;;4.72;3.00;;;21.50;71.80;;;;;;5045020;28;20057;-77
2023/10/07 12:07:16;;;;;;;5.03;2.60;;;21.50;71.70;;;;;;5007306;28;20904;-74
2023/10/07 12:09:46;;;;;;;4.45;2.67;;;21.60;71.60;;;;;;5034567;28;20025;-76
2023/10/07 12:12:13;;;;;;;4.78;2.70;;;21.60;71.50;;;;;;5040355;28;20124;-78
2023/10/07 12:14:39;;;;;;;4.55;2.45;;;21.60;71.50;;;;;;5034342;28;20033;-77
2023/10/07 12:17:04;;;;;;;4.90;2.50;;;21.60;71.40;;;;;;5025224;28;20022;-76
2023/10/07 12:19:36;;;;;;;4.88;2.53;;;21.70;71.40;;;;;;5042148;28;20061;-76
2023/10/07 12:22:05;;;;;;;5.50;2.75;;;21.70;71.40;;;;;;5036853;28;20079;-76
2023/10/07 12:24:32;;;;;;;3.80;2.30;;;21.70;71.30;;;;;;5034016;28;20017;-76
2023/10/07 12:26:59;;;;;;;3.47;2.22;;;21.80;71.30;;;;;;5025294;28;20060;-77
2023/10/07 12:29:26;;;;;;;5.13;2.42;;;21.80;71.30;;;;;;5017567;28;20437;-77
2023/10/07 12:31:52;;;;;;;5.38;2.50;;;21.80;71.20;;;;;;5034147;28;20036;-77
2023/10/07 12:34:19;;;;;;;3.92;2.40;;;21.80;71.20;;;;;;5024745;28;20048;-76
2023/10/07 12:36:47;;;;;;;3.72;2.33;;;21.80;71.10;;;;;;5040411;28;20033;-77
2023/10/07 12:39:14;;;;;;;4.55;2.53;;;21.90;71.20;;;;;;5023133;28;20056;-78
2023/10/07 12:41:41;;;;;;;5.18;2.67;;;21.90;71.10;;;;;;5033625;28;20033;-77
2023/10/07 12:44:10;;;;;;;4.03;2.28;;;21.90;71.10;;;;;;5025500;28;20095;-76
2023/10/07 12:46:40;;;;;;;3.28;1.92;;;22.00;71.10;;;;;;5005485;28;20466;-75
2023/10/07 12:49:10;;;;;;;4.35;2.00;;;22.00;71.10;;;;;;5044051;28;20028;-77
2023/10/07 12:51:45;;;;;;;3.72;2.03;;;22.00;71.00;;;;;;5030687;28;20497;-77
2023/10/07 12:54:11;;;;;;;;;;;22.00;71.00;;;;;;5039287;28;20045;-76
2023/10/07 12:56:38;;;;;;;4.43;1.98;;;22.00;70.90;;;;;;5042763;28;19920;-76
2023/10/07 12:59:17;;;;;;;3.80;2.25;;;22.10;70.80;;;;;;5020719;28;20021;-77
2023/10/07 13:01:56;;;;;;;4.80;2.25;;;22.10;70.80;;;;;;5036066;28;20053;-77
2023/10/07 13:04:26;;;;;;;4.55;2.35;;;22.10;70.90;;;;;;5038187;28;20083;-76
2023/10/07 13:07:00;;;;;;;4.53;2.45;;;22.10;70.80;;;;;;5012834;28;20034;-77
2023/10/07 13:09:30;;;;;;;4.75;2.40;;;22.20;70.80;;;;;;5037102;28;20107;-76
2023/10/07 13:12:00;;;;;;;5.45;2.85;;;22.20;70.80;;;;;;5029318;28;20033;-76
2023/10/07 13:14:26;;;;;;;5.53;2.50;;;22.20;70.80;;;;;;5023192;28;20088;-76
2023/10/07 13:16:59;;;;;;;4.97;2.33;;;22.20;70.80;;;;;;5017087;28;20148;-76
2023/10/07 13:19:26;;;;;;;4.13;2.35;;;22.30;70.80;;;;;;5028897;28;20030;-77
2023/10/07 13:21:59;;;;;;;3.70;2.22;;;22.30;70.80;;;;;;5044978;28;20036;-76
2023/10/07 13:24:26;;;;;;;4.25;2.30;;;22.30;70.80;;;;;;5034830;28;20104;-76
2023/10/07 13:26:52;;;;;;;3.75;2.33;;;22.40;70.70;;;;;;5006230;28;20041;-76
2023/10/07 13:29:17;;;;;;;3.88;2.35;;;22.40;70.70;;;;;;5025662;28;20561;-76
2023/10/07 13:31:43;;;;;;;4.32;2.20;;;22.40;70.70;;;;;;5041711;28;20033;-76
2023/10/07 13:34:10;;;;;;;4.15;2.25;;;22.40;70.70;;;;;;5017629;28;20044;-76
2023/10/07 13:36:41;;;;;;;3.42;2.08;;;22.40;70.60;;;;;;5020945;28;20033;-75
2023/10/07 13:39:15;;;;;;;4.18;2.17;;;22.40;70.60;;;;;;5031938;28;20109;-76
2023/10/07 13:41:45;;;;;;;4.03;2.10;;;22.50;70.70;;;;;;5016030;28;20398;-76
2023/10/07 13:44:16;;;;;;;3.90;2.38;;;22.50;70.60;;;;;;5042459;28;20067;-76
2023/10/07 13:46:43;;;;;;;3.85;2.17;;;22.50;70.60;;;;;;5015970;28;20033;-76
2023/10/07 13:49:09;;;;;;;3.47;2.15;;;22.50;70.60;;;;;;5023148;28;20025;-76
2023/10/07 13:51:41;;;;;;;3.55;2.33;;;22.50;70.50;;;;;;5006680;28;20610;-76
2023/10/07 13:56:56;;;;;;;4.93;2.53;;;22.60;70.50;;;;;;5039600;28;20071;-77
2023/10/07 13:59:22;;;;;;;5.25;2.75;;;22.60;70.40;;;;;;5039574;28;20371;-77
2023/10/07 14:01:51;;;;;;;3.17;2.20;;;22.60;70.50;;;;;;5029329;28;20041;-76